sensor_id;sensor_type;location;lat;lon;timestamp;P1;durP1;ratioP1;P2;durP2;ratioP2
10281;SDS011;5186;59.472;18.048;2023-05-10T00:01:07;6.07;;;4.50;;
10281;SDS011;5186;59.472;18.048;2023-05-10T00:03:32;6.80;;;4.37;;
10281;SDS011;5186;59.472;18.048;2023-05-10T00:05:58;9.00;;;4.83;;
10281;SDS011;5186;59.472;18.048;2023-05-10T00:08:24;7.53;;;4.70;;
10281;SDS011;5186;59.472;18.048;2023-05-10T00:10:50;8.47;;;4.43;;
10281;SDS011;5186;59.472;18.048;2023-05-10T00:13:15;10.30;;;5.07;;
10281;SDS011;5186;59.472;18.048;2023-05-10T00:15:41;9.87;;;4.63;;
10281;SDS011;5186;59.472;18.048;2023-05-10T00:18:06;7.03;;;4.40;;
10281;SDS011;5186;59.472;18.048;2023-05-10T00:20:32;6.20;;;4.57;;
10281;SDS011;5186;59.472;18.048;2023-05-10T00:22:58;7.57;;;4.57;;
10281;SDS011;5186;59.472;18.048;2023-05-10T00:25:23;9.37;;;5.07;;
10281;SDS011;5186;59.472;18.048;2023-05-10T00:27:49;9.13;;;4.83;;
10281;SDS011;5186;59.472;18.048;2023-05-10T00:30:15;8.53;;;4.57;;
10281;SDS011;5186;59.472;18.048;2023-05-10T00:32:41;6.67;;;4.50;;
10281;SDS011;5186;59.472;18.048;2023-05-10T00:35:06;6.93;;;4.97;;
10281;SDS011;5186;59.472;18.048;2023-05-10T00:37:32;10.53;;;5.10;;
10281;SDS011;5186;59.472;18.048;2023-05-10T00:39:58;8.00;;;5.00;;
10281;SDS011;5186;59.472;18.048;2023-05-10T00:42:24;9.37;;;4.80;;
10281;SDS011;5186;59.472;18.048;2023-05-10T00:44:50;7.57;;;4.70;;
10281;SDS011;5186;59.472;18.048;2023-05-10T00:47:15;7.20;;;5.07;;
10281;SDS011;5186;59.472;18.048;2023-05-10T00:49:41;7.63;;;4.60;;
10281;SDS011;5186;59.472;18.048;2023-05-10T00:52:08;8.33;;;5.00;;
10281;SDS011;5186;59.472;18.048;2023-05-10T00:54:34;5.80;;;4.37;;
10281;SDS011;5186;59.472;18.048;2023-05-10T00:56:59;7.63;;;4.87;;
10281;SDS011;5186;59.472;18.048;2023-05-10T00:59:25;8.00;;;4.50;;
10281;SDS011;5186;59.472;18.048;2023-05-10T01:01:51;7.33;;;4.40;;
10281;SDS011;5186;59.472;18.048;2023-05-10T01:04:17;8.90;;;4.60;;
10281;SDS011;5186;59.472;18.048;2023-05-10T01:06:44;8.60;;;4.33;;
10281;SDS011;5186;59.472;18.048;2023-05-10T01:09:10;6.80;;;4.30;;
10281;SDS011;5186;59.472;18.048;2023-05-10T01:11:37;5.13;;;4.33;;
10281;SDS011;5186;59.472;18.048;2023-05-10T01:14:04;10.10;;;4.90;;
10281;SDS011;5186;59.472;18.048;2023-05-10T01:16:36;6.37;;;4.23;;
10281;SDS011;5186;59.472;18.048;2023-05-10T01:19:04;7.50;;;4.50;;
10281;SDS011;5186;59.472;18.048;2023-05-10T01:21:56;7.30;;;4.77;;
10281;SDS011;5186;59.472;18.048;2023-05-10T01:24:38;8.40;;;4.47;;
10281;SDS011;5186;59.472;18.048;2023-05-10T01:43:56;7.10;;;4.80;;
10281;SDS011;5186;59.472;18.048;2023-05-10T01:47:01;6.77;;;4.40;;
10281;SDS011;5186;59.472;18.048;2023-05-10T01:49:34;7.33;;;5.03;;
10281;SDS011;5186;59.472;18.048;2023-05-10T01:52:10;9.17;;;4.80;;
10281;SDS011;5186;59.472;18.048;2023-05-10T01:54:39;7.90;;;4.77;;
10281;SDS011;5186;59.472;18.048;2023-05-10T01:57:09;6.33;;;4.63;;
10281;SDS011;5186;59.472;18.048;2023-05-10T01:59:39;6.50;;;4.70;;
10281;SDS011;5186;59.472;18.048;2023-05-10T02:02:08;5.70;;;4.40;;
10281;SDS011;5186;59.472;18.048;2023-05-10T02:04:36;6.87;;;5.27;;
10281;SDS011;5186;59.472;18.048;2023-05-10T02:07:04;5.63;;;4.20;;
10281;SDS011;5186;59.472;18.048;2023-05-10T02:09:31;7.60;;;5.23;;
10281;SDS011;5186;59.472;18.048;2023-05-10T02:11:58;8.13;;;5.07;;
10281;SDS011;5186;59.472;18.048;2023-05-10T02:14:27;7.60;;;4.97;;
10281;SDS011;5186;59.472;18.048;2023-05-10T02:16:57;7.13;;;5.00;;
10281;SDS011;5186;59.472;18.048;2023-05-10T02:19:24;7.40;;;5.23;;
10281;SDS011;5186;59.472;18.048;2023-05-10T02:21:52;6.43;;;4.97;;
10281;SDS011;5186;59.472;18.048;2023-05-10T02:24:20;9.63;;;4.73;;
10281;SDS011;5186;59.472;18.048;2023-05-10T02:26:49;6.60;;;4.50;;
10281;SDS011;5186;59.472;18.048;2023-05-10T02:29:16;7.30;;;5.10;;
10281;SDS011;5186;59.472;18.048;2023-05-10T02:31:43;8.47;;;4.50;;
10281;SDS011;5186;59.472;18.048;2023-05-10T02:34:10;8.23;;;5.30;;
10281;SDS011;5186;59.472;18.048;2023-05-10T02:36:38;7.67;;;4.80;;
10281;SDS011;5186;59.472;18.048;2023-05-10T02:39:06;7.67;;;5.20;;
10281;SDS011;5186;59.472;18.048;2023-05-10T02:41:35;8.87;;;5.07;;
10281;SDS011;5186;59.472;18.048;2023-05-10T02:44:01;8.67;;;4.80;;
10281;SDS011;5186;59.472;18.048;2023-05-10T02:46:28;8.23;;;4.77;;
10281;SDS011;5186;59.472;18.048;2023-05-10T02:48:54;5.77;;;5.13;;
10281;SDS011;5186;59.472;18.048;2023-05-10T02:51:20;8.00;;;4.67;;
10281;SDS011;5186;59.472;18.048;2023-05-10T02:53:50;7.60;;;4.63;;
10281;SDS011;5186;59.472;18.048;2023-05-10T02:56:23;7.53;;;4.97;;
10281;SDS011;5186;59.472;18.048;2023-05-10T02:58:53;6.90;;;4.90;;
10281;SDS011;5186;59.472;18.048;2023-05-10T03:01:20;7.93;;;5.23;;
10281;SDS011;5186;59.472;18.048;2023-05-10T03:03:45;13.33;;;5.07;;
10281;SDS011;5186;59.472;18.048;2023-05-10T03:06:11;6.43;;;4.60;;
10281;SDS011;5186;59.472;18.048;2023-05-10T03:08:36;7.00;;;5.30;;
10281;SDS011;5186;59.472;18.048;2023-05-10T03:16:46;8.33;;;5.20;;
10281;SDS011;5186;59.472;18.048;2023-05-10T03:20:03;5.07;;;4.57;;
10281;SDS011;5186;59.472;18.048;2023-05-10T03:22:23;5.43;;;4.70;;
10281;SDS011;5186;59.472;18.048;2023-05-10T03:24:57;9.60;;;4.97;;
10281;SDS011;5186;59.472;18.048;2023-05-10T03:27:26;8.20;;;4.90;;
10281;SDS011;5186;59.472;18.048;2023-05-10T03:29:53;9.63;;;5.13;;
10281;SDS011;5186;59.472;18.048;2023-05-10T03:32:19;7.37;;;4.93;;
10281;SDS011;5186;59.472;18.048;2023-05-10T03:34:45;6.70;;;4.80;;
10281;SDS011;5186;59.472;18.048;2023-05-10T03:37:10;9.20;;;5.13;;
10281;SDS011;5186;59.472;18.048;2023-05-10T03:39:36;8.73;;;5.00;;
10281;SDS011;5186;59.472;18.048;2023-05-10T03:42:02;7.17;;;5.10;;
10281;SDS011;5186;59.472;18.048;2023-05-10T03:44:27;6.00;;;4.27;;
10281;SDS011;5186;59.472;18.048;2023-05-10T03:46:53;5.70;;;4.60;;
10281;SDS011;5186;59.472;18.048;2023-05-10T03:49:18;6.37;;;4.63;;
10281;SDS011;5186;59.472;18.048;2023-05-10T03:51:44;8.20;;;4.90;;
10281;SDS011;5186;59.472;18.048;2023-05-10T03:54:10;8.23;;;4.70;;
10281;SDS011;5186;59.472;18.048;2023-05-10T03:56:35;6.43;;;4.77;;
10281;SDS011;5186;59.472;18.048;2023-05-10T03:59:01;9.00;;;5.23;;
10281;SDS011;5186;59.472;18.048;2023-05-10T04:01:26;8.90;;;4.73;;
10281;SDS011;5186;59.472;18.048;2023-05-10T04:03:52;7.30;;;4.47;;
10281;SDS011;5186;59.472;18.048;2023-05-10T04:06:17;7.47;;;4.70;;
10281;SDS011;5186;59.472;18.048;2023-05-10T04:08:43;5.93;;;4.37;;
10281;SDS011;5186;59.472;18.048;2023-05-10T04:11:09;7.43;;;4.77;;
10281;SDS011;5186;59.472;18.048;2023-05-10T04:13:36;8.43;;;4.53;;
10281;SDS011;5186;59.472;18.048;2023-05-10T04:16:02;6.77;;;4.77;;
10281;SDS011;5186;59.472;18.048;2023-05-10T04:18:28;8.30;;;4.83;;
10281;SDS011;5186;59.472;18.048;2023-05-10T04:20:53;5.67;;;3.80;;
10281;SDS011;5186;59.472;18.048;2023-05-10T04:23:19;6.80;;;4.83;;
10281;SDS011;5186;59.472;18.048;2023-05-10T04:25:44;6.40;;;4.13;;
10281;SDS011;5186;59.472;18.048;2023-05-10T04:28:10;6.90;;;4.27;;
10281;SDS011;5186;59.472;18.048;2023-05-10T04:30:36;6.73;;;4.33;;
10281;SDS011;5186;59.472;18.048;2023-05-10T04:33:01;5.00;;;3.83;;
10281;SDS011;5186;59.472;18.048;2023-05-10T04:35:27;8.07;;;4.63;;
10281;SDS011;5186;59.472;18.048;2023-05-10T04:37:53;6.20;;;3.90;;
10281;SDS011;5186;59.472;18.048;2023-05-10T04:40:19;5.87;;;4.20;;
10281;SDS011;5186;59.472;18.048;2023-05-10T04:42:45;6.37;;;3.97;;
10281;SDS011;5186;59.472;18.048;2023-05-10T04:45:11;6.37;;;4.43;;
10281;SDS011;5186;59.472;18.048;2023-05-10T04:47:37;10.07;;;3.90;;
10281;SDS011;5186;59.472;18.048;2023-05-10T04:50:03;5.77;;;4.17;;
10281;SDS011;5186;59.472;18.048;2023-05-10T04:52:29;8.67;;;3.83;;
10281;SDS011;5186;59.472;18.048;2023-05-10T04:54:54;4.87;;;3.90;;
10281;SDS011;5186;59.472;18.048;2023-05-10T04:57:20;7.60;;;4.00;;
10281;SDS011;5186;59.472;18.048;2023-05-10T04:59:46;5.57;;;3.90;;
10281;SDS011;5186;59.472;18.048;2023-05-10T05:02:11;6.17;;;3.90;;
10281;SDS011;5186;59.472;18.048;2023-05-10T05:04:37;6.43;;;3.77;;
10281;SDS011;5186;59.472;18.048;2023-05-10T05:07:02;6.77;;;3.77;;
10281;SDS011;5186;59.472;18.048;2023-05-10T05:09:28;8.03;;;3.80;;
10281;SDS011;5186;59.472;18.048;2023-05-10T05:11:54;6.27;;;3.53;;
10281;SDS011;5186;59.472;18.048;2023-05-10T05:14:19;6.67;;;3.80;;
10281;SDS011;5186;59.472;18.048;2023-05-10T05:16:46;8.57;;;3.63;;
10281;SDS011;5186;59.472;18.048;2023-05-10T05:19:11;4.00;;;3.30;;
10281;SDS011;5186;59.472;18.048;2023-05-10T05:21:37;9.17;;;4.03;;
10281;SDS011;5186;59.472;18.048;2023-05-10T05:24:03;6.43;;;3.80;;
10281;SDS011;5186;59.472;18.048;2023-05-10T05:26:29;6.63;;;4.07;;
10281;SDS011;5186;59.472;18.048;2023-05-10T05:28:54;8.57;;;4.00;;
10281;SDS011;5186;59.472;18.048;2023-05-10T05:31:20;6.37;;;3.40;;
10281;SDS011;5186;59.472;18.048;2023-05-10T05:33:46;8.50;;;3.63;;
10281;SDS011;5186;59.472;18.048;2023-05-10T05:36:11;7.03;;;3.57;;
10281;SDS011;5186;59.472;18.048;2023-05-10T05:38:37;6.13;;;3.90;;
10281;SDS011;5186;59.472;18.048;2023-05-10T05:41:03;5.03;;;3.20;;
10281;SDS011;5186;59.472;18.048;2023-05-10T05:43:28;11.83;;;3.90;;
10281;SDS011;5186;59.472;18.048;2023-05-10T05:45:54;6.93;;;3.80;;
10281;SDS011;5186;59.472;18.048;2023-05-10T05:48:22;7.10;;;3.63;;
10281;SDS011;5186;59.472;18.048;2023-05-10T05:50:48;8.53;;;3.20;;
10281;SDS011;5186;59.472;18.048;2023-05-10T05:53:14;7.13;;;3.50;;
10281;SDS011;5186;59.472;18.048;2023-05-10T05:55:39;9.67;;;3.80;;
10281;SDS011;5186;59.472;18.048;2023-05-10T05:58:05;8.73;;;3.50;;
10281;SDS011;5186;59.472;18.048;2023-05-10T06:00:30;8.10;;;3.37;;
10281;SDS011;5186;59.472;18.048;2023-05-10T06:02:56;6.20;;;3.93;;
10281;SDS011;5186;59.472;18.048;2023-05-10T06:05:22;6.93;;;3.70;;
10281;SDS011;5186;59.472;18.048;2023-05-10T06:07:47;11.20;;;3.90;;
10281;SDS011;5186;59.472;18.048;2023-05-10T06:10:13;7.90;;;3.50;;
10281;SDS011;5186;59.472;18.048;2023-05-10T06:12:38;8.03;;;3.67;;
10281;SDS011;5186;59.472;18.048;2023-05-10T06:15:04;8.60;;;3.50;;
10281;SDS011;5186;59.472;18.048;2023-05-10T06:17:30;5.83;;;3.57;;
10281;SDS011;5186;59.472;18.048;2023-05-10T06:19:56;7.70;;;3.57;;
10281;SDS011;5186;59.472;18.048;2023-05-10T06:22:21;6.33;;;3.50;;
10281;SDS011;5186;59.472;18.048;2023-05-10T06:24:47;7.73;;;3.60;;
10281;SDS011;5186;59.472;18.048;2023-05-10T06:27:14;5.40;;;3.30;;
10281;SDS011;5186;59.472;18.048;2023-05-10T06:29:39;6.73;;;3.13;;
10281;SDS011;5186;59.472;18.048;2023-05-10T06:32:05;8.40;;;3.40;;
10281;SDS011;5186;59.472;18.048;2023-05-10T06:34:31;5.43;;;2.80;;
10281;SDS011;5186;59.472;18.048;2023-05-10T06:36:57;5.30;;;2.90;;
10281;SDS011;5186;59.472;18.048;2023-05-10T06:39:22;6.10;;;3.00;;
10281;SDS011;5186;59.472;18.048;2023-05-10T06:41:48;8.60;;;3.10;;
10281;SDS011;5186;59.472;18.048;2023-05-10T06:44:14;8.33;;;3.07;;
10281;SDS011;5186;59.472;18.048;2023-05-10T06:46:40;8.97;;;3.70;;
10281;SDS011;5186;59.472;18.048;2023-05-10T06:49:06;5.70;;;3.17;;
10281;SDS011;5186;59.472;18.048;2023-05-10T06:51:32;6.27;;;3.30;;
10281;SDS011;5186;59.472;18.048;2023-05-10T06:53:57;7.63;;;3.20;;
10281;SDS011;5186;59.472;18.048;2023-05-10T06:56:23;11.73;;;3.30;;
10281;SDS011;5186;59.472;18.048;2023-05-10T06:58:48;6.43;;;3.10;;
10281;SDS011;5186;59.472;18.048;2023-05-10T07:01:14;8.30;;;2.90;;
10281;SDS011;5186;59.472;18.048;2023-05-10T07:03:40;7.27;;;2.87;;
10281;SDS011;5186;59.472;18.048;2023-05-10T07:06:06;7.13;;;3.00;;
10281;SDS011;5186;59.472;18.048;2023-05-10T07:08:32;6.97;;;3.53;;
10281;SDS011;5186;59.472;18.048;2023-05-10T07:10:59;12.70;;;3.40;;
10281;SDS011;5186;59.472;18.048;2023-05-10T07:13:25;9.10;;;3.23;;
10281;SDS011;5186;59.472;18.048;2023-05-10T07:15:51;5.57;;;3.10;;
10281;SDS011;5186;59.472;18.048;2023-05-10T07:18:16;7.17;;;3.50;;
10281;SDS011;5186;59.472;18.048;2023-05-10T07:20:42;6.37;;;3.33;;
10281;SDS011;5186;59.472;18.048;2023-05-10T07:23:08;4.30;;;3.10;;
10281;SDS011;5186;59.472;18.048;2023-05-10T07:25:33;7.03;;;3.67;;
10281;SDS011;5186;59.472;18.048;2023-05-10T07:27:59;5.03;;;3.13;;
10281;SDS011;5186;59.472;18.048;2023-05-10T07:30:24;6.07;;;3.00;;
10281;SDS011;5186;59.472;18.048;2023-05-10T07:32:50;7.33;;;3.63;;
10281;SDS011;5186;59.472;18.048;2023-05-10T07:35:15;4.00;;;2.90;;
10281;SDS011;5186;59.472;18.048;2023-05-10T07:37:41;7.10;;;3.43;;
10281;SDS011;5186;59.472;18.048;2023-05-10T07:40:06;8.70;;;3.13;;
10281;SDS011;5186;59.472;18.048;2023-05-10T07:42:33;4.20;;;2.70;;
10281;SDS011;5186;59.472;18.048;2023-05-10T07:44:58;6.73;;;3.20;;
10281;SDS011;5186;59.472;18.048;2023-05-10T07:47:24;6.43;;;3.40;;
10281;SDS011;5186;59.472;18.048;2023-05-10T07:49:49;3.87;;;2.93;;
10281;SDS011;5186;59.472;18.048;2023-05-10T07:52:15;5.33;;;3.30;;
10281;SDS011;5186;59.472;18.048;2023-05-10T07:54:40;6.13;;;3.60;;
10281;SDS011;5186;59.472;18.048;2023-05-10T07:57:06;6.33;;;3.10;;
10281;SDS011;5186;59.472;18.048;2023-05-10T07:59:31;9.80;;;3.80;;
10281;SDS011;5186;59.472;18.048;2023-05-10T08:01:57;5.93;;;3.10;;
10281;SDS011;5186;59.472;18.048;2023-05-10T08:04:23;5.83;;;3.20;;
10281;SDS011;5186;59.472;18.048;2023-05-10T08:06:49;6.73;;;3.13;;
10281;SDS011;5186;59.472;18.048;2023-05-10T08:09:14;4.67;;;2.80;;
10281;SDS011;5186;59.472;18.048;2023-05-10T08:11:41;7.73;;;3.30;;
10281;SDS011;5186;59.472;18.048;2023-05-10T08:14:06;5.10;;;3.03;;
10281;SDS011;5186;59.472;18.048;2023-05-10T08:16:32;5.20;;;2.70;;
10281;SDS011;5186;59.472;18.048;2023-05-10T08:18:57;6.13;;;3.50;;
10281;SDS011;5186;59.472;18.048;2023-05-10T08:21:23;4.30;;;3.00;;
10281;SDS011;5186;59.472;18.048;2023-05-10T08:23:48;8.47;;;3.40;;
10281;SDS011;5186;59.472;18.048;2023-05-10T08:26:14;6.37;;;3.23;;
10281;SDS011;5186;59.472;18.048;2023-05-10T08:28:40;5.60;;;3.73;;
10281;SDS011;5186;59.472;18.048;2023-05-10T08:31:05;7.13;;;3.70;;
10281;SDS011;5186;59.472;18.048;2023-05-10T08:33:31;5.97;;;2.90;;
10281;SDS011;5186;59.472;18.048;2023-05-10T08:35:56;5.70;;;3.00;;
10281;SDS011;5186;59.472;18.048;2023-05-10T08:38:22;6.53;;;3.30;;
10281;SDS011;5186;59.472;18.048;2023-05-10T08:40:48;3.13;;;2.70;;
10281;SDS011;5186;59.472;18.048;2023-05-10T08:43:16;4.83;;;3.30;;
10281;SDS011;5186;59.472;18.048;2023-05-10T08:45:42;6.43;;;2.70;;
10281;SDS011;5186;59.472;18.048;2023-05-10T08:48:10;3.67;;;2.93;;
10281;SDS011;5186;59.472;18.048;2023-05-10T08:50:37;5.97;;;3.10;;
10281;SDS011;5186;59.472;18.048;2023-05-10T08:53:06;5.17;;;2.83;;
10281;SDS011;5186;59.472;18.048;2023-05-10T08:55:34;4.90;;;3.13;;
10281;SDS011;5186;59.472;18.048;2023-05-10T08:58:02;5.83;;;3.43;;
10281;SDS011;5186;59.472;18.048;2023-05-10T09:00:29;4.03;;;3.10;;
10281;SDS011;5186;59.472;18.048;2023-05-10T09:02:55;3.60;;;3.00;;
10281;SDS011;5186;59.472;18.048;2023-05-10T09:05:22;3.93;;;3.00;;
10281;SDS011;5186;59.472;18.048;2023-05-10T09:07:48;7.07;;;3.13;;
10281;SDS011;5186;59.472;18.048;2023-05-10T09:10:14;6.93;;;2.80;;
10281;SDS011;5186;59.472;18.048;2023-05-10T09:12:40;5.50;;;3.10;;
10281;SDS011;5186;59.472;18.048;2023-05-10T09:15:06;4.63;;;3.00;;
10281;SDS011;5186;59.472;18.048;2023-05-10T09:17:32;5.33;;;2.80;;
10281;SDS011;5186;59.472;18.048;2023-05-10T09:20:03;5.17;;;2.63;;
10281;SDS011;5186;59.472;18.048;2023-05-10T09:22:35;7.57;;;3.07;;
10281;SDS011;5186;59.472;18.048;2023-05-10T09:27:33;6.10;;;2.90;;
10281;SDS011;5186;59.472;18.048;2023-05-10T09:29:59;6.80;;;2.70;;
10281;SDS011;5186;59.472;18.048;2023-05-10T09:32:47;5.17;;;2.87;;
10281;SDS011;5186;59.472;18.048;2023-05-10T09:37:39;4.23;;;2.90;;
10281;SDS011;5186;59.472;18.048;2023-05-10T09:40:10;2.77;;;2.50;;
10281;SDS011;5186;59.472;18.048;2023-05-10T09:42:37;6.20;;;3.00;;
10281;SDS011;5186;59.472;18.048;2023-05-10T09:45:03;5.87;;;3.00;;
10281;SDS011;5186;59.472;18.048;2023-05-10T09:47:33;3.80;;;2.57;;
10281;SDS011;5186;59.472;18.048;2023-05-10T09:50:00;7.37;;;2.90;;
10281;SDS011;5186;59.472;18.048;2023-05-10T09:52:45;5.80;;;3.17;;
10281;SDS011;5186;59.472;18.048;2023-05-10T09:55:11;6.07;;;2.93;;
10281;SDS011;5186;59.472;18.048;2023-05-10T09:57:37;8.77;;;2.93;;
10281;SDS011;5186;59.472;18.048;2023-05-10T10:00:03;4.17;;;2.70;;
10281;SDS011;5186;59.472;18.048;2023-05-10T10:02:29;3.50;;;2.73;;
10281;SDS011;5186;59.472;18.048;2023-05-10T10:04:56;5.77;;;3.03;;
10281;SDS011;5186;59.472;18.048;2023-05-10T10:07:23;5.63;;;3.07;;
10281;SDS011;5186;59.472;18.048;2023-05-10T10:09:51;4.37;;;2.60;;
10281;SDS011;5186;59.472;18.048;2023-05-10T10:12:18;4.23;;;2.80;;
10281;SDS011;5186;59.472;18.048;2023-05-10T10:14:45;6.77;;;3.30;;
10281;SDS011;5186;59.472;18.048;2023-05-10T10:17:15;7.27;;;2.83;;
10281;SDS011;5186;59.472;18.048;2023-05-10T10:19:42;6.30;;;2.90;;
10281;SDS011;5186;59.472;18.048;2023-05-10T10:22:08;5.47;;;2.60;;
10281;SDS011;5186;59.472;18.048;2023-05-10T10:24:36;4.77;;;2.90;;
10281;SDS011;5186;59.472;18.048;2023-05-10T10:27:10;4.17;;;3.10;;
10281;SDS011;5186;59.472;18.048;2023-05-10T10:29:57;4.70;;;2.67;;
10281;SDS011;5186;59.472;18.048;2023-05-10T10:35:29;3.80;;;2.73;;
10281;SDS011;5186;59.472;18.048;2023-05-10T10:37:56;3.40;;;2.80;;
10281;SDS011;5186;59.472;18.048;2023-05-10T10:40:28;5.50;;;2.57;;
10281;SDS011;5186;59.472;18.048;2023-05-10T10:42:55;4.67;;;2.80;;
10281;SDS011;5186;59.472;18.048;2023-05-10T10:45:22;2.60;;;2.40;;
10281;SDS011;5186;59.472;18.048;2023-05-10T10:47:53;5.07;;;2.60;;
10281;SDS011;5186;59.472;18.048;2023-05-10T10:50:44;3.87;;;2.47;;
10281;SDS011;5186;59.472;18.048;2023-05-10T10:53:10;4.80;;;2.73;;
10281;SDS011;5186;59.472;18.048;2023-05-10T10:55:44;3.47;;;2.30;;
10281;SDS011;5186;59.472;18.048;2023-05-10T10:58:18;4.77;;;2.50;;
10281;SDS011;5186;59.472;18.048;2023-05-10T11:03:40;4.90;;;2.53;;
10281;SDS011;5186;59.472;18.048;2023-05-10T11:06:28;7.80;;;2.97;;
10281;SDS011;5186;59.472;18.048;2023-05-10T11:08:57;7.63;;;3.30;;
10281;SDS011;5186;59.472;18.048;2023-05-10T11:11:23;5.00;;;2.60;;
10281;SDS011;5186;59.472;18.048;2023-05-10T11:13:49;8.10;;;2.87;;
10281;SDS011;5186;59.472;18.048;2023-05-10T11:18:40;4.07;;;2.63;;
10281;SDS011;5186;59.472;18.048;2023-05-10T11:21:16;8.87;;;2.93;;
10281;SDS011;5186;59.472;18.048;2023-05-10T11:23:51;4.30;;;2.60;;
10281;SDS011;5186;59.472;18.048;2023-05-10T11:26:21;4.47;;;2.60;;
10281;SDS011;5186;59.472;18.048;2023-05-10T11:28:51;4.60;;;2.40;;
10281;SDS011;5186;59.472;18.048;2023-05-10T11:31:20;3.57;;;2.73;;
10281;SDS011;5186;59.472;18.048;2023-05-10T11:33:47;8.00;;;3.00;;
10281;SDS011;5186;59.472;18.048;2023-05-10T11:36:21;5.00;;;2.50;;
10281;SDS011;5186;59.472;18.048;2023-05-10T11:38:49;7.33;;;2.90;;
10281;SDS011;5186;59.472;18.048;2023-05-10T11:41:15;5.50;;;2.50;;
10281;SDS011;5186;59.472;18.048;2023-05-10T11:43:42;4.60;;;2.90;;
10281;SDS011;5186;59.472;18.048;2023-05-10T11:46:09;4.30;;;2.60;;
10281;SDS011;5186;59.472;18.048;2023-05-10T11:48:38;4.30;;;2.47;;
10281;SDS011;5186;59.472;18.048;2023-05-10T11:51:04;5.77;;;2.47;;
10281;SDS011;5186;59.472;18.048;2023-05-10T11:53:31;5.23;;;2.80;;
10281;SDS011;5186;59.472;18.048;2023-05-10T11:56:04;4.80;;;2.70;;
10281;SDS011;5186;59.472;18.048;2023-05-10T11:58:31;4.27;;;2.67;;
10281;SDS011;5186;59.472;18.048;2023-05-10T12:00:58;4.67;;;2.87;;
10281;SDS011;5186;59.472;18.048;2023-05-10T12:03:24;9.33;;;3.20;;
10281;SDS011;5186;59.472;18.048;2023-05-10T12:05:51;4.97;;;2.70;;
10281;SDS011;5186;59.472;18.048;2023-05-10T12:08:20;4.13;;;2.60;;
10281;SDS011;5186;59.472;18.048;2023-05-10T12:10:50;6.10;;;2.90;;
10281;SDS011;5186;59.472;18.048;2023-05-10T12:13:16;6.63;;;2.53;;
10281;SDS011;5186;59.472;18.048;2023-05-10T12:15:42;6.90;;;3.17;;
10281;SDS011;5186;59.472;18.048;2023-05-10T12:18:09;2.63;;;2.40;;
10281;SDS011;5186;59.472;18.048;2023-05-10T12:20:35;4.00;;;2.93;;
10281;SDS011;5186;59.472;18.048;2023-05-10T12:23:01;5.93;;;2.90;;
10281;SDS011;5186;59.472;18.048;2023-05-10T12:25:34;6.03;;;3.00;;
10281;SDS011;5186;59.472;18.048;2023-05-10T12:28:04;4.93;;;2.83;;
10281;SDS011;5186;59.472;18.048;2023-05-10T12:30:32;5.63;;;2.70;;
10281;SDS011;5186;59.472;18.048;2023-05-10T12:35:43;3.70;;;2.83;;
10281;SDS011;5186;59.472;18.048;2023-05-10T12:38:26;7.03;;;3.10;;
10281;SDS011;5186;59.472;18.048;2023-05-10T12:40:54;3.53;;;2.60;;
10281;SDS011;5186;59.472;18.048;2023-05-10T12:43:20;3.43;;;2.57;;
10281;SDS011;5186;59.472;18.048;2023-05-10T12:45:46;4.70;;;2.70;;
10281;SDS011;5186;59.472;18.048;2023-05-10T12:48:13;5.97;;;3.00;;
10281;SDS011;5186;59.472;18.048;2023-05-10T12:50:40;7.57;;;2.90;;
10281;SDS011;5186;59.472;18.048;2023-05-10T12:53:05;5.97;;;2.60;;
10281;SDS011;5186;59.472;18.048;2023-05-10T12:55:31;3.40;;;2.40;;
10281;SDS011;5186;59.472;18.048;2023-05-10T12:57:56;4.53;;;2.77;;
10281;SDS011;5186;59.472;18.048;2023-05-10T13:00:22;5.23;;;2.60;;
10281;SDS011;5186;59.472;18.048;2023-05-10T13:02:48;3.80;;;2.40;;
10281;SDS011;5186;59.472;18.048;2023-05-10T13:05:14;6.70;;;2.50;;
10281;SDS011;5186;59.472;18.048;2023-05-10T13:07:39;6.47;;;2.80;;
10281;SDS011;5186;59.472;18.048;2023-05-10T13:10:05;3.13;;;2.53;;
10281;SDS011;5186;59.472;18.048;2023-05-10T13:12:31;3.87;;;2.40;;
10281;SDS011;5186;59.472;18.048;2023-05-10T13:14:57;3.77;;;2.63;;
10281;SDS011;5186;59.472;18.048;2023-05-10T13:17:24;4.13;;;2.43;;
10281;SDS011;5186;59.472;18.048;2023-05-10T13:19:50;5.60;;;2.63;;
10281;SDS011;5186;59.472;18.048;2023-05-10T13:22:16;6.50;;;2.70;;
10281;SDS011;5186;59.472;18.048;2023-05-10T13:24:41;5.30;;;2.40;;
10281;SDS011;5186;59.472;18.048;2023-05-10T13:27:07;3.10;;;2.23;;
10281;SDS011;5186;59.472;18.048;2023-05-10T13:29:33;5.67;;;2.50;;
10281;SDS011;5186;59.472;18.048;2023-05-10T13:31:58;3.90;;;2.43;;
10281;SDS011;5186;59.472;18.048;2023-05-10T13:34:24;3.57;;;2.60;;
10281;SDS011;5186;59.472;18.048;2023-05-10T13:36:50;2.97;;;2.23;;
10281;SDS011;5186;59.472;18.048;2023-05-10T13:39:15;8.53;;;2.50;;
10281;SDS011;5186;59.472;18.048;2023-05-10T13:41:41;6.53;;;2.40;;
10281;SDS011;5186;59.472;18.048;2023-05-10T13:44:07;3.97;;;2.50;;
10281;SDS011;5186;59.472;18.048;2023-05-10T13:46:32;4.87;;;2.73;;
10281;SDS011;5186;59.472;18.048;2023-05-10T13:48:58;4.43;;;2.57;;
10281;SDS011;5186;59.472;18.048;2023-05-10T13:51:24;3.23;;;2.37;;
10281;SDS011;5186;59.472;18.048;2023-05-10T13:53:49;4.60;;;2.47;;
10281;SDS011;5186;59.472;18.048;2023-05-10T13:56:15;3.13;;;2.27;;
10281;SDS011;5186;59.472;18.048;2023-05-10T13:58:40;3.77;;;2.07;;
10281;SDS011;5186;59.472;18.048;2023-05-10T14:01:06;6.20;;;3.00;;
10281;SDS011;5186;59.472;18.048;2023-05-10T14:03:32;6.63;;;2.97;;
10281;SDS011;5186;59.472;18.048;2023-05-10T14:05:58;4.60;;;2.80;;
10281;SDS011;5186;59.472;18.048;2023-05-10T14:08:23;5.13;;;2.27;;
10281;SDS011;5186;59.472;18.048;2023-05-10T14:10:49;3.67;;;2.47;;
10281;SDS011;5186;59.472;18.048;2023-05-10T14:13:15;4.17;;;2.70;;
10281;SDS011;5186;59.472;18.048;2023-05-10T14:15:41;4.60;;;2.73;;
10281;SDS011;5186;59.472;18.048;2023-05-10T14:18:06;5.40;;;2.60;;
10281;SDS011;5186;59.472;18.048;2023-05-10T14:20:32;3.47;;;2.50;;
10281;SDS011;5186;59.472;18.048;2023-05-10T14:22:59;3.80;;;2.87;;
10281;SDS011;5186;59.472;18.048;2023-05-10T14:25:25;8.90;;;3.07;;
10281;SDS011;5186;59.472;18.048;2023-05-10T14:27:50;5.67;;;2.43;;
10281;SDS011;5186;59.472;18.048;2023-05-10T14:30:16;5.57;;;2.60;;
10281;SDS011;5186;59.472;18.048;2023-05-10T14:32:42;4.57;;;2.30;;
10281;SDS011;5186;59.472;18.048;2023-05-10T14:35:08;4.07;;;2.13;;
10281;SDS011;5186;59.472;18.048;2023-05-10T14:37:33;3.07;;;2.30;;
10281;SDS011;5186;59.472;18.048;2023-05-10T14:39:59;5.33;;;2.20;;
10281;SDS011;5186;59.472;18.048;2023-05-10T14:42:25;5.13;;;2.30;;
10281;SDS011;5186;59.472;18.048;2023-05-10T14:44:51;2.97;;;2.10;;
10281;SDS011;5186;59.472;18.048;2023-05-10T14:47:16;5.43;;;2.23;;
10281;SDS011;5186;59.472;18.048;2023-05-10T14:49:42;3.43;;;2.33;;
10281;SDS011;5186;59.472;18.048;2023-05-10T14:52:07;4.20;;;2.20;;
10281;SDS011;5186;59.472;18.048;2023-05-10T14:54:33;6.30;;;2.30;;
10281;SDS011;5186;59.472;18.048;2023-05-10T14:56:58;1.97;;;1.73;;
10281;SDS011;5186;59.472;18.048;2023-05-10T14:59:25;3.70;;;2.30;;
10281;SDS011;5186;59.472;18.048;2023-05-10T15:01:50;3.83;;;2.40;;
10281;SDS011;5186;59.472;18.048;2023-05-10T15:04:16;5.07;;;2.13;;
10281;SDS011;5186;59.472;18.048;2023-05-10T15:06:42;3.50;;;2.17;;
10281;SDS011;5186;59.472;18.048;2023-05-10T15:09:07;7.43;;;2.37;;
10281;SDS011;5186;59.472;18.048;2023-05-10T15:11:33;3.63;;;2.20;;
10281;SDS011;5186;59.472;18.048;2023-05-10T15:13:59;4.53;;;2.30;;
10281;SDS011;5186;59.472;18.048;2023-05-10T15:16:26;3.50;;;2.40;;
10281;SDS011;5186;59.472;18.048;2023-05-10T15:18:52;3.17;;;2.20;;
10281;SDS011;5186;59.472;18.048;2023-05-10T15:21:17;3.83;;;2.30;;
10281;SDS011;5186;59.472;18.048;2023-05-10T15:23:43;3.37;;;2.07;;
10281;SDS011;5186;59.472;18.048;2023-05-10T15:26:09;4.27;;;2.30;;